createdAt,value
2017-01-07T00:00:19.066Z,22.03
2017-01-07T00:00:59.682Z,22.07
2017-01-07T00:01:40.272Z,22.09
2017-01-07T00:02:20.856Z,22.09
2017-01-07T00:03:01.442Z,22.07
2017-01-07T00:03:42.052Z,21.98
2017-01-07T00:04:22.632Z,22.1
2017-01-07T00:05:03.247Z,21.94
2017-01-07T00:05:43.831Z,22.03
2017-01-07T00:06:24.419Z,22.09
2017-01-07T00:07:04.996Z,22.05
2017-01-07T00:07:45.571Z,21.96
2017-01-07T00:08:26.159Z,22.07
2017-01-07T00:09:06.752Z,22.07
2017-01-07T00:09:47.335Z,22
2017-01-07T00:10:27.919Z,22.1
2017-01-07T00:11:08.507Z,22.05
2017-01-07T00:11:49.089Z,22.07
2017-01-07T00:12:29.670Z,22.06
2017-01-07T00:13:10.249Z,22.03
2017-01-07T00:13:50.833Z,22.09
2017-01-07T00:14:31.427Z,22.06
2017-01-07T00:15:12.010Z,22.09
2017-01-07T00:15:52.593Z,22.05
2017-01-07T00:16:33.170Z,22.05
2017-01-07T00:17:13.755Z,22.07
2017-01-07T00:17:54.360Z,22.03
2017-01-07T00:18:34.977Z,21.9
2017-01-07T00:19:15.569Z,22.06
2017-01-07T00:19:56.156Z,22.06
2017-01-07T00:20:36.772Z,22.09
2017-01-07T00:21:17.363Z,22.07
2017-01-07T00:21:57.943Z,22.05
2017-01-07T00:22:38.523Z,21.99
2017-01-07T00:23:19.117Z,22.05
2017-01-07T00:23:59.693Z,21.98
2017-01-07T00:24:40.286Z,22.06
2017-01-07T00:25:20.882Z,22
2017-01-07T00:26:01.478Z,22.02
2017-01-07T00:26:42.076Z,21.92
2017-01-07T00:27:22.668Z,21.94
2017-01-07T00:28:03.248Z,21.99
2017-01-07T00:28:43.838Z,21.9
2017-01-07T00:29:24.419Z,22.02
2017-01-07T00:30:04.989Z,21.99
2017-01-07T00:30:45.574Z,22.02
2017-01-07T00:31:26.151Z,21.9
2017-01-07T00:32:06.747Z,22.1
2017-01-07T00:32:47.360Z,22.06
2017-01-07T00:33:27.946Z,22.03
2017-01-07T00:34:08.535Z,22.02
2017-01-07T00:34:49.142Z,22.02
2017-01-07T00:35:29.741Z,21.9
2017-01-07T00:36:10.350Z,21.98
2017-01-07T00:36:50.958Z,22.05
2017-01-07T00:37:31.563Z,21.96
2017-01-07T00:38:12.153Z,22.03
2017-01-07T00:38:52.744Z,21.99
2017-01-07T00:39:33.352Z,21.98
2017-01-07T00:40:13.936Z,21.98
2017-01-07T00:40:54.514Z,22.02
2017-01-07T00:41:35.114Z,21.99
2017-01-07T00:42:15.697Z,21.91
2017-01-07T00:42:56.293Z,21.91
2017-01-07T00:43:36.885Z,21.91
2017-01-07T00:44:17.467Z,22.02
2017-01-07T00:44:58.067Z,21.9
2017-01-07T00:45:38.676Z,21.99
2017-01-07T00:46:19.254Z,21.91
2017-01-07T00:46:59.853Z,22
2017-01-07T00:47:40.441Z,21.98
2017-01-07T00:48:21.020Z,21.99
2017-01-07T00:49:01.605Z,21.99
2017-01-07T00:49:42.196Z,22.03
2017-01-07T00:50:22.798Z,22.02
2017-01-07T00:51:03.397Z,21.98
2017-01-07T00:51:43.978Z,22.03
2017-01-07T00:52:24.557Z,22.03
2017-01-07T00:53:05.144Z,21.91
2017-01-07T00:53:45.760Z,21.94
2017-01-07T00:54:26.344Z,21.99
2017-01-07T00:55:06.932Z,21.98
2017-01-07T00:55:47.518Z,22
2017-01-07T00:56:28.109Z,21.92
2017-01-07T00:57:08.700Z,21.96
2017-01-07T00:57:49.289Z,21.98
2017-01-07T00:58:29.900Z,21.99
2017-01-07T00:59:10.479Z,21.94
2017-01-07T00:59:51.071Z,21.99
2017-01-07T01:00:31.655Z,21.98
2017-01-07T01:01:12.224Z,21.99
2017-01-07T01:01:52.811Z,21.94
2017-01-07T01:02:33.392Z,22.03
2017-01-07T01:03:13.988Z,21.99
2017-01-07T01:03:54.575Z,22.02
2017-01-07T01:04:35.186Z,21.9
2017-01-07T01:05:15.773Z,21.99
2017-01-07T01:05:56.366Z,21.99
2017-01-07T01:06:36.937Z,21.92
2017-01-07T01:07:17.527Z,21.94
2017-01-07T01:07:58.105Z,21.98
2017-01-07T01:08:38.715Z,22.02
2017-01-07T01:09:19.295Z,22.02
2017-01-07T01:09:59.908Z,21.94
2017-01-07T01:10:40.496Z,22
2017-01-07T01:11:21.080Z,21.99
2017-01-07T01:12:01.672Z,22
2017-01-07T01:12:42.253Z,21.92
2017-01-07T01:13:22.856Z,21.98
2017-01-07T01:14:03.443Z,21.99
2017-01-07T01:14:44.045Z,21.92
2017-01-07T01:15:24.634Z,22
2017-01-07T01:16:05.224Z,22.02
2017-01-07T01:16:45.812Z,22.02
2017-01-07T01:17:26.397Z,22.02
2017-01-07T01:18:06.976Z,21.91
2017-01-07T01:18:47.571Z,22
2017-01-07T01:19:28.169Z,21.92
2017-01-07T01:20:08.739Z,21.98
2017-01-07T01:20:49.313Z,21.99
2017-01-07T01:21:29.900Z,21.94
2017-01-07T01:22:10.483Z,21.96
2017-01-07T01:22:51.070Z,21.92
2017-01-07T01:23:31.646Z,21.96
2017-01-07T01:24:12.224Z,21.96
2017-01-07T01:24:52.818Z,21.99
2017-01-07T01:25:33.403Z,21.96
2017-01-07T01:26:13.984Z,21.92
2017-01-07T01:26:54.573Z,21.96
2017-01-07T01:27:35.155Z,22
2017-01-07T01:28:15.738Z,22.05
2017-01-07T01:28:56.313Z,21.94
2017-01-07T01:29:36.898Z,21.94
2017-01-07T01:30:17.493Z,21.91
2017-01-07T01:30:58.083Z,21.98
2017-01-07T01:31:38.680Z,21.94
2017-01-07T01:32:19.259Z,21.96
2017-01-07T01:32:59.847Z,21.98
2017-01-07T01:33:40.420Z,21.99
2017-01-07T01:34:21.005Z,21.9
2017-01-07T01:35:01.597Z,21.98
2017-01-07T01:35:42.207Z,21.91
2017-01-07T01:36:22.797Z,21.94
2017-01-07T01:37:03.376Z,21.96
2017-01-07T01:37:43.961Z,22.02
2017-01-07T01:38:24.549Z,21.99
2017-01-07T01:39:05.169Z,21.96
2017-01-07T01:39:45.782Z,21.96
2017-01-07T01:40:26.374Z,21.96
2017-01-07T01:41:06.960Z,21.98
2017-01-07T01:41:47.555Z,21.94
2017-01-07T01:42:28.139Z,21.96
2017-01-07T01:43:08.729Z,21.99
2017-01-07T01:43:49.316Z,22.02
2017-01-07T01:44:29.899Z,21.98
2017-01-07T01:45:10.485Z,22
2017-01-07T01:45:51.083Z,21.96
2017-01-07T01:46:31.679Z,21.99
2017-01-07T01:47:12.272Z,21.92
2017-01-07T01:47:52.843Z,22.02
2017-01-07T01:48:33.437Z,21.98
2017-01-07T01:49:14.022Z,22
2017-01-07T01:49:54.604Z,21.98
2017-01-07T01:50:35.190Z,21.92
2017-01-07T01:51:15.789Z,21.96
2017-01-07T01:51:56.380Z,21.98
2017-01-07T01:52:36.963Z,21.99
2017-01-07T01:53:17.554Z,21.96
2017-01-07T01:53:58.143Z,21.92
2017-01-07T01:54:38.737Z,21.94
2017-01-07T01:55:19.319Z,21.92
2017-01-07T01:55:59.902Z,21.88
2017-01-07T01:56:40.488Z,22.03
2017-01-07T01:57:21.068Z,22
2017-01-07T01:58:01.646Z,21.99
2017-01-07T01:58:42.229Z,21.86
2017-01-07T01:59:22.811Z,22
2017-01-07T02:00:03.389Z,21.91
2017-01-07T02:00:43.968Z,22
2017-01-07T02:01:24.559Z,21.96
2017-01-07T02:02:05.162Z,21.96
2017-01-07T02:02:45.756Z,21.94
2017-01-07T02:03:26.358Z,21.98
2017-01-07T02:04:06.944Z,21.92
2017-01-07T02:04:47.530Z,21.9
2017-01-07T02:05:28.119Z,21.98
2017-01-07T02:06:08.705Z,21.99
2017-01-07T02:06:49.285Z,21.98
2017-01-07T02:07:29.874Z,21.96
2017-01-07T02:08:10.453Z,21.86
2017-01-07T02:08:51.046Z,21.94
2017-01-07T02:09:31.629Z,21.91
2017-01-07T02:10:12.235Z,21.88
2017-01-07T02:10:52.825Z,21.86
2017-01-07T02:11:33.426Z,22
2017-01-07T02:12:14.011Z,21.96
2017-01-07T02:12:54.617Z,21.98
2017-01-07T02:13:35.204Z,21.86
2017-01-07T02:14:15.807Z,21.98
2017-01-07T02:14:56.391Z,21.9
2017-01-07T02:15:36.993Z,21.9
2017-01-07T02:16:17.574Z,21.86
2017-01-07T02:16:58.156Z,21.91
2017-01-07T02:17:38.741Z,22.05
2017-01-07T02:18:19.345Z,21.88
2017-01-07T02:18:59.960Z,21.84
2017-01-07T02:19:40.552Z,21.88
2017-01-07T02:20:21.170Z,21.98
2017-01-07T02:21:01.750Z,21.9
2017-01-07T02:21:42.371Z,21.88
2017-01-07T02:22:22.959Z,22
2017-01-07T02:23:03.552Z,21.9
2017-01-07T02:23:44.134Z,21.88
2017-01-07T02:24:24.719Z,21.91
2017-01-07T02:25:05.307Z,21.86
2017-01-07T02:25:45.892Z,21.86
2017-01-07T02:26:26.478Z,21.9
2017-01-07T02:27:07.057Z,22
2017-01-07T02:27:47.667Z,21.96
2017-01-07T02:28:28.252Z,22.02
2017-01-07T02:29:08.854Z,21.92
2017-01-07T02:29:49.439Z,21.86
2017-01-07T02:30:30.017Z,21.99
2017-01-07T02:31:10.598Z,21.91
2017-01-07T02:31:51.177Z,21.96
2017-01-07T02:32:31.779Z,21.92
2017-01-07T02:33:12.355Z,21.9
2017-01-07T02:33:52.930Z,22.03
2017-01-07T02:34:33.516Z,21.9
2017-01-07T02:35:14.115Z,21.9
2017-01-07T02:35:54.696Z,21.88
2017-01-07T02:36:35.281Z,21.92
2017-01-07T02:37:15.872Z,21.98
2017-01-07T02:37:56.475Z,22
2017-01-07T02:38:37.059Z,21.96
2017-01-07T02:39:17.640Z,21.98
2017-01-07T02:39:58.213Z,21.92
2017-01-07T02:40:38.802Z,22
2017-01-07T02:41:19.380Z,21.91
2017-01-07T02:41:59.964Z,21.94
2017-01-07T02:42:40.552Z,21.96
2017-01-07T02:43:21.147Z,21.88
2017-01-07T02:44:01.735Z,21.94
2017-01-07T02:44:42.314Z,21.84
2017-01-07T02:45:22.899Z,21.83
2017-01-07T02:46:03.491Z,21.88
2017-01-07T02:46:44.085Z,21.98
2017-01-07T02:47:24.662Z,21.83
2017-01-07T02:48:05.240Z,21.8
2017-01-07T02:48:45.828Z,21.92
2017-01-07T02:49:26.417Z,21.88
2017-01-07T02:50:06.997Z,21.98
2017-01-07T02:50:47.581Z,21.99
2017-01-07T02:51:28.173Z,21.9
2017-01-07T02:52:08.774Z,21.91
2017-01-07T02:52:49.382Z,21.92
2017-01-07T02:53:29.978Z,21.92
2017-01-07T02:54:10.573Z,21.82
2017-01-07T02:54:51.157Z,21.96
2017-01-07T02:55:31.758Z,21.94
2017-01-07T02:56:12.340Z,21.88
2017-01-07T02:56:52.925Z,21.92
2017-01-07T02:57:33.507Z,21.94
2017-01-07T02:58:14.098Z,21.92
2017-01-07T02:58:54.694Z,21.82
2017-01-07T02:59:35.279Z,21.91
2017-01-07T03:00:15.868Z,21.92
2017-01-07T03:00:56.444Z,21.91
2017-01-07T03:01:37.057Z,21.8
2017-01-07T03:02:17.644Z,21.92
2017-01-07T03:02:58.218Z,21.91
2017-01-07T03:03:38.809Z,21.88
2017-01-07T03:04:19.402Z,21.96
2017-01-07T03:04:59.983Z,21.94
2017-01-07T03:05:40.566Z,21.99
2017-01-07T03:06:21.163Z,21.86
2017-01-07T03:07:01.769Z,21.96
2017-01-07T03:07:42.362Z,21.86
2017-01-07T03:08:22.954Z,21.9
2017-01-07T03:09:03.535Z,21.82
2017-01-07T03:09:44.125Z,21.88
2017-01-07T03:10:24.706Z,21.9
2017-01-07T03:11:05.308Z,21.91
2017-01-07T03:11:45.884Z,21.91
2017-01-07T03:12:26.471Z,21.94
2017-01-07T03:13:07.070Z,21.92
2017-01-07T03:13:47.657Z,21.77
2017-01-07T03:14:28.242Z,21.92
2017-01-07T03:15:08.828Z,21.91
2017-01-07T03:15:49.409Z,21.92
2017-01-07T03:16:30.001Z,21.88
2017-01-07T03:17:10.597Z,21.84
2017-01-07T03:17:51.194Z,21.92
2017-01-07T03:18:31.788Z,21.86
2017-01-07T03:19:12.366Z,21.91
2017-01-07T03:19:52.940Z,21.92
2017-01-07T03:20:33.528Z,21.86
2017-01-07T03:21:14.102Z,21.88
2017-01-07T03:21:54.689Z,21.98
2017-01-07T03:22:35.272Z,21.91
2017-01-07T03:23:15.853Z,21.84
2017-01-07T03:23:56.435Z,21.96
2017-01-07T03:24:37.012Z,21.91
2017-01-07T03:25:17.596Z,21.94
2017-01-07T03:25:58.183Z,21.92
2017-01-07T03:26:38.755Z,21.92
2017-01-07T03:27:19.347Z,21.9
2017-01-07T03:27:59.925Z,21.96
2017-01-07T03:28:40.522Z,21.92
2017-01-07T03:29:21.100Z,21.9
2017-01-07T03:30:01.674Z,21.9
2017-01-07T03:30:42.259Z,21.86
2017-01-07T03:31:22.846Z,21.9
2017-01-07T03:32:03.432Z,21.88
2017-01-07T03:32:44.010Z,21.9
2017-01-07T03:33:24.597Z,21.84
2017-01-07T03:34:05.188Z,21.9
2017-01-07T03:34:45.769Z,21.99
2017-01-07T03:35:26.351Z,21.79
2017-01-07T03:36:06.935Z,21.79
2017-01-07T03:36:47.521Z,21.98
2017-01-07T03:37:28.112Z,21.94
2017-01-07T03:38:08.700Z,21.96
2017-01-07T03:38:49.295Z,21.92
2017-01-07T03:39:29.885Z,21.96
2017-01-07T03:40:10.465Z,21.79
2017-01-07T03:40:51.061Z,21.83
2017-01-07T03:41:31.645Z,21.94
2017-01-07T03:42:12.223Z,21.77
2017-01-07T03:42:52.797Z,21.82
2017-01-07T03:43:33.385Z,21.91
2017-01-07T03:44:13.984Z,21.88
2017-01-07T03:44:54.585Z,21.8
2017-01-07T03:45:35.175Z,21.83
2017-01-07T03:46:15.755Z,21.99
2017-01-07T03:46:56.343Z,21.84
2017-01-07T03:47:36.929Z,21.91
2017-01-07T03:48:17.508Z,21.92
2017-01-07T03:48:58.095Z,21.82
2017-01-07T03:49:38.679Z,21.96
2017-01-07T03:50:19.281Z,21.79
2017-01-07T03:50:59.871Z,21.9
2017-01-07T03:51:40.468Z,21.9
2017-01-07T03:52:21.050Z,21.9
2017-01-07T03:53:01.633Z,21.83
2017-01-07T03:53:42.228Z,21.86
2017-01-07T03:54:22.806Z,21.83
2017-01-07T03:55:03.390Z,21.86
2017-01-07T03:55:43.977Z,21.82
2017-01-07T03:56:24.565Z,21.83
2017-01-07T03:57:05.152Z,21.84
2017-01-07T03:57:45.754Z,21.84
2017-01-07T03:58:26.348Z,21.86
2017-01-07T03:59:06.936Z,21.86
2017-01-07T03:59:47.536Z,21.8
2017-01-07T04:00:28.117Z,21.86
2017-01-07T04:01:08.690Z,21.91
2017-01-07T04:01:49.298Z,21.83
2017-01-07T04:02:29.892Z,21.86
2017-01-07T04:03:10.471Z,21.86
2017-01-07T04:03:51.058Z,21.86
2017-01-07T04:04:31.652Z,21.84
2017-01-07T04:05:12.231Z,21.82
2017-01-07T04:05:52.828Z,21.92
2017-01-07T04:06:33.417Z,21.86
2017-01-07T04:07:14.005Z,21.84
2017-01-07T04:07:54.594Z,21.82
2017-01-07T04:08:35.210Z,21.92
2017-01-07T04:09:15.796Z,21.83
2017-01-07T04:09:56.381Z,21.91
2017-01-07T04:10:36.971Z,21.83
2017-01-07T04:11:17.548Z,21.88
2017-01-07T04:11:58.144Z,21.83
2017-01-07T04:12:38.721Z,21.84
2017-01-07T04:13:19.300Z,21.92
2017-01-07T04:13:59.887Z,21.88
2017-01-07T04:14:40.471Z,21.83
2017-01-07T04:15:21.057Z,21.86
2017-01-07T04:16:01.646Z,21.82
2017-01-07T04:16:42.240Z,21.9
2017-01-07T04:17:22.841Z,21.84
2017-01-07T04:18:03.436Z,21.88
2017-01-07T04:18:44.048Z,21.82
2017-01-07T04:19:24.631Z,21.88
2017-01-07T04:20:05.229Z,21.88
2017-01-07T04:20:45.817Z,21.91
2017-01-07T04:21:26.414Z,21.88
2017-01-07T04:22:06.995Z,21.8
2017-01-07T04:22:47.579Z,21.88
2017-01-07T04:23:28.148Z,21.8
2017-01-07T04:24:08.738Z,21.79
2017-01-07T04:24:49.313Z,21.88
2017-01-07T04:25:29.892Z,21.86
2017-01-07T04:26:10.479Z,21.82
2017-01-07T04:26:51.060Z,21.86
2017-01-07T04:27:31.642Z,21.79
2017-01-07T04:28:12.225Z,21.88
2017-01-07T04:28:52.816Z,21.84
2017-01-07T04:29:33.393Z,21.82
2017-01-07T04:30:14.005Z,21.83
2017-01-07T04:30:54.583Z,21.74
2017-01-07T04:31:35.174Z,21.88
2017-01-07T04:32:15.753Z,21.82
2017-01-07T04:32:56.334Z,21.88
2017-01-07T04:33:36.919Z,21.77
2017-01-07T04:34:17.515Z,21.82
2017-01-07T04:34:58.097Z,21.79
2017-01-07T04:35:38.691Z,21.83
2017-01-07T04:36:19.270Z,21.79
2017-01-07T04:36:59.855Z,21.82
2017-01-07T04:37:40.459Z,21.84
2017-01-07T04:38:21.049Z,21.84
2017-01-07T04:39:01.633Z,21.84
2017-01-07T04:39:42.219Z,21.82
2017-01-07T04:40:22.801Z,21.79
2017-01-07T04:41:03.385Z,21.77
2017-01-07T04:41:44.006Z,21.88
2017-01-07T04:42:24.599Z,21.82
2017-01-07T04:43:05.193Z,21.82
2017-01-07T04:43:45.778Z,21.84
2017-01-07T04:44:26.373Z,21.79
2017-01-07T04:45:06.964Z,21.86
2017-01-07T04:45:47.543Z,21.83
2017-01-07T04:46:28.127Z,21.79
2017-01-07T04:47:08.719Z,21.86
2017-01-07T04:47:49.298Z,21.82
2017-01-07T04:48:29.880Z,21.83
2017-01-07T04:49:10.470Z,21.79
2017-01-07T04:49:51.058Z,21.8
2017-01-07T04:50:31.645Z,21.79
2017-01-07T04:51:12.228Z,21.86
2017-01-07T04:51:52.809Z,21.71
2017-01-07T04:52:33.414Z,21.82
2017-01-07T04:53:13.996Z,21.74
2017-01-07T04:53:54.579Z,21.79
2017-01-07T04:54:35.176Z,21.82
2017-01-07T04:55:15.761Z,21.8
2017-01-07T04:55:56.355Z,21.82
2017-01-07T04:56:36.932Z,21.8
2017-01-07T04:57:17.521Z,21.75
2017-01-07T04:57:58.112Z,21.77
2017-01-07T04:58:38.713Z,21.79
2017-01-07T04:59:19.306Z,21.8
2017-01-07T04:59:59.883Z,21.77
2017-01-07T05:00:40.466Z,21.75
2017-01-07T05:01:21.048Z,21.8
2017-01-07T05:02:01.632Z,21.8
2017-01-07T05:02:42.216Z,21.77
2017-01-07T05:03:22.804Z,21.79
2017-01-07T05:04:03.385Z,21.77
2017-01-07T05:04:43.981Z,21.82
2017-01-07T05:05:24.574Z,21.82
2017-01-07T05:06:05.154Z,21.77
2017-01-07T05:06:45.739Z,21.77
2017-01-07T05:07:26.317Z,21.74
2017-01-07T05:08:06.899Z,21.74
2017-01-07T05:08:47.487Z,21.77
2017-01-07T05:09:28.067Z,21.82
2017-01-07T05:10:08.656Z,21.79
2017-01-07T05:10:49.238Z,21.8
2017-01-07T05:11:29.828Z,21.82
2017-01-07T05:12:10.411Z,21.77
2017-01-07T05:12:51.001Z,21.79
2017-01-07T05:13:31.591Z,21.77
2017-01-07T05:14:12.217Z,21.8
2017-01-07T05:14:52.805Z,21.79
2017-01-07T05:15:33.402Z,21.79
2017-01-07T05:16:13.996Z,21.82
2017-01-07T05:16:54.596Z,21.71
2017-01-07T05:17:35.182Z,21.8
2017-01-07T05:18:15.775Z,21.77
2017-01-07T05:18:56.383Z,21.8
2017-01-07T05:19:36.987Z,21.69
2017-01-07T05:20:17.571Z,21.71
2017-01-07T05:20:58.172Z,21.8
2017-01-07T05:21:38.759Z,21.83
2017-01-07T05:22:19.343Z,21.83
2017-01-07T05:22:59.938Z,21.77
2017-01-07T05:23:40.538Z,21.77
2017-01-07T05:24:21.132Z,21.75
2017-01-07T05:25:01.720Z,21.84
2017-01-07T05:25:42.316Z,21.77
2017-01-07T05:26:22.898Z,21.79
2017-01-07T05:27:03.484Z,21.74
2017-01-07T05:27:44.073Z,21.71
2017-01-07T05:28:24.668Z,21.75
2017-01-07T05:29:05.264Z,21.79
2017-01-07T05:29:45.854Z,21.77
2017-01-07T05:30:26.443Z,21.8
2017-01-07T05:31:07.035Z,21.74
2017-01-07T05:31:47.621Z,21.79
2017-01-07T05:32:28.213Z,21.75
2017-01-07T05:33:08.789Z,21.79
2017-01-07T05:33:49.366Z,21.79
2017-01-07T05:34:29.960Z,21.77
2017-01-07T05:35:10.536Z,21.75
2017-01-07T05:35:51.125Z,21.83
2017-01-07T05:36:31.725Z,21.82
2017-01-07T05:37:12.321Z,21.72
2017-01-07T05:37:52.914Z,21.77
2017-01-07T05:38:33.504Z,21.75
2017-01-07T05:39:14.088Z,21.77
2017-01-07T05:39:54.685Z,21.72
2017-01-07T05:40:35.269Z,21.72
2017-01-07T05:41:15.847Z,21.74
2017-01-07T05:41:56.436Z,21.69
2017-01-07T05:42:37.034Z,21.75
2017-01-07T05:43:17.632Z,21.8
2017-01-07T05:43:58.238Z,21.72
2017-01-07T05:44:38.820Z,21.77
2017-01-07T05:45:19.403Z,21.74
2017-01-07T05:45:59.997Z,21.79
2017-01-07T05:46:40.578Z,21.72
2017-01-07T05:47:21.161Z,21.77
2017-01-07T05:48:01.751Z,21.74
2017-01-07T05:48:42.329Z,21.74
2017-01-07T05:49:22.913Z,21.72
2017-01-07T05:50:03.492Z,21.74
2017-01-07T05:50:44.064Z,21.74
2017-01-07T05:51:24.641Z,21.77
2017-01-07T05:52:05.229Z,21.72
2017-01-07T05:52:45.815Z,21.74
2017-01-07T05:53:26.407Z,21.75
2017-01-07T05:54:06.997Z,21.77
2017-01-07T05:54:47.576Z,21.71
2017-01-07T05:55:28.177Z,21.71
2017-01-07T05:56:08.768Z,21.72
2017-01-07T05:56:49.379Z,21.72
2017-01-07T05:57:29.973Z,21.69
2017-01-07T05:58:10.576Z,21.74
2017-01-07T05:58:51.156Z,21.72
2017-01-07T05:59:31.736Z,21.72
2017-01-07T06:00:12.320Z,21.77
2017-01-07T06:00:52.936Z,21.71
2017-01-07T06:01:33.534Z,21.74
2017-01-07T06:02:14.114Z,21.72
2017-01-07T06:02:54.703Z,21.75
2017-01-07T06:03:35.298Z,21.72
2017-01-07T06:04:15.892Z,21.71
2017-01-07T06:04:56.489Z,21.69
2017-01-07T06:05:37.095Z,21.72
2017-01-07T06:06:17.683Z,21.69
2017-01-07T06:06:58.263Z,21.67
2017-01-07T06:07:38.843Z,21.72
2017-01-07T06:08:19.432Z,21.69
2017-01-07T06:09:00.014Z,21.67
2017-01-07T06:09:40.619Z,21.72
2017-01-07T06:10:21.206Z,21.71
2017-01-07T06:11:01.795Z,21.67
2017-01-07T06:11:42.384Z,21.69
2017-01-07T06:12:22.964Z,21.67
2017-01-07T06:13:03.566Z,21.69
2017-01-07T06:13:44.166Z,21.71
2017-01-07T06:14:24.773Z,21.74
2017-01-07T06:15:05.363Z,21.72
2017-01-07T06:15:45.946Z,21.68
2017-01-07T06:16:26.521Z,21.72
2017-01-07T06:17:07.100Z,21.68
2017-01-07T06:17:47.694Z,21.69
2017-01-07T06:18:28.287Z,21.71
2017-01-07T06:19:08.883Z,21.72
2017-01-07T06:19:49.477Z,21.67
2017-01-07T06:20:30.073Z,21.72
2017-01-07T06:21:10.658Z,21.68
2017-01-07T06:21:51.247Z,21.75
2017-01-07T06:22:31.838Z,21.69
2017-01-07T06:23:12.434Z,21.67
2017-01-07T06:23:53.018Z,21.68
2017-01-07T06:24:33.605Z,21.72
2017-01-07T06:25:14.194Z,21.69
2017-01-07T06:25:54.780Z,21.69
2017-01-07T06:26:35.363Z,21.71
2017-01-07T06:27:15.971Z,21.69
2017-01-07T06:27:56.565Z,21.69
2017-01-07T06:28:37.167Z,21.71
2017-01-07T06:29:17.768Z,21.69
2017-01-07T06:29:58.370Z,21.69
2017-01-07T06:30:38.959Z,21.69
2017-01-07T06:31:19.543Z,21.68
2017-01-07T06:32:00.148Z,21.69
2017-01-07T06:32:40.728Z,21.69
2017-01-07T06:33:21.299Z,21.71
2017-01-07T06:34:01.869Z,21.68
2017-01-07T06:34:42.462Z,21.56
2017-01-07T06:35:23.054Z,21.68
2017-01-07T06:36:03.640Z,21.72
2017-01-07T06:36:44.216Z,21.74
2017-01-07T06:37:24.791Z,21.69
2017-01-07T06:38:05.371Z,21.69
2017-01-07T06:38:45.971Z,21.67
2017-01-07T06:39:26.557Z,21.72
2017-01-07T06:40:07.141Z,21.64
2017-01-07T06:40:47.739Z,21.68
2017-01-07T06:41:28.324Z,21.72
2017-01-07T06:42:08.909Z,21.69
2017-01-07T06:42:49.492Z,21.69
2017-01-07T06:43:30.093Z,21.69
2017-01-07T06:44:10.680Z,21.71
2017-01-07T06:44:51.255Z,21.74
2017-01-07T06:45:31.842Z,21.59
2017-01-07T06:46:12.421Z,21.71
2017-01-07T06:46:53.004Z,21.71
2017-01-07T06:47:33.594Z,21.71
2017-01-07T06:48:14.211Z,21.75
2017-01-07T06:48:54.812Z,21.58
2017-01-07T06:49:35.392Z,21.71
2017-01-07T06:50:16.005Z,21.74
2017-01-07T06:50:56.599Z,21.68
2017-01-07T06:51:37.187Z,21.68
2017-01-07T06:52:17.774Z,21.69
2017-01-07T06:52:58.369Z,21.67
2017-01-07T06:53:38.964Z,21.68
2017-01-07T06:54:19.550Z,21.68
2017-01-07T06:55:00.139Z,21.64
2017-01-07T06:55:40.728Z,21.72
2017-01-07T06:56:21.308Z,21.65
2017-01-07T06:57:01.906Z,21.64
2017-01-07T06:57:42.524Z,21.65
2017-01-07T06:58:23.105Z,21.56
2017-01-07T06:59:03.686Z,21.65
2017-01-07T06:59:44.273Z,21.71
2017-01-07T07:00:24.841Z,21.72
2017-01-07T07:01:05.429Z,21.69
2017-01-07T07:01:46.020Z,21.61
2017-01-07T07:02:26.603Z,21.65
2017-01-07T07:03:07.192Z,21.65
2017-01-07T07:03:47.781Z,21.59
2017-01-07T07:04:28.374Z,21.69
2017-01-07T07:05:08.961Z,21.65
2017-01-07T07:05:49.553Z,21.58
2017-01-07T07:06:30.144Z,21.58
2017-01-07T07:07:10.758Z,21.58
2017-01-07T07:07:51.342Z,21.56
2017-01-07T07:08:31.956Z,21.61
2017-01-07T07:09:12.539Z,21.65
2017-01-07T07:09:53.137Z,21.69
2017-01-07T07:10:33.720Z,21.67
2017-01-07T07:11:14.307Z,21.69
2017-01-07T07:11:54.888Z,21.64
2017-01-07T07:12:35.469Z,21.59
2017-01-07T07:13:16.051Z,21.54
2017-01-07T07:13:56.640Z,21.62
2017-01-07T07:14:37.226Z,21.74
2017-01-07T07:15:17.819Z,21.61
2017-01-07T07:15:58.397Z,21.67
2017-01-07T07:16:38.979Z,21.61
2017-01-07T07:17:19.563Z,21.61
2017-01-07T07:18:00.149Z,21.62
2017-01-07T07:18:40.736Z,21.61
2017-01-07T07:19:21.309Z,21.64
2017-01-07T07:20:01.903Z,21.58
2017-01-07T07:20:42.492Z,21.65
2017-01-07T07:21:23.080Z,21.59
2017-01-07T07:22:03.683Z,21.64
2017-01-07T07:22:44.282Z,21.62
2017-01-07T07:23:24.859Z,21.58
2017-01-07T07:24:05.459Z,21.67
2017-01-07T07:24:46.053Z,21.61
2017-01-07T07:25:26.656Z,21.54
2017-01-07T07:26:07.258Z,21.58
2017-01-07T07:26:47.844Z,21.65
2017-01-07T07:27:28.443Z,21.56
2017-01-07T07:28:09.023Z,21.61
2017-01-07T07:28:49.606Z,21.58
2017-01-07T07:29:30.220Z,21.69
2017-01-07T07:30:10.823Z,21.61
2017-01-07T07:30:51.422Z,21.62
2017-01-07T07:31:32.011Z,21.64
2017-01-07T07:32:12.605Z,21.67
2017-01-07T07:32:53.201Z,21.64
2017-01-07T07:33:33.786Z,21.58
2017-01-07T07:34:14.359Z,21.62
2017-01-07T07:34:54.938Z,21.62
2017-01-07T07:35:35.545Z,21.59
2017-01-07T07:36:16.139Z,21.56
2017-01-07T07:36:56.731Z,21.69
2017-01-07T07:37:37.319Z,21.69
2017-01-07T07:38:17.908Z,21.56
2017-01-07T07:38:58.492Z,21.72
2017-01-07T07:39:39.073Z,21.61
2017-01-07T07:40:19.657Z,21.64
2017-01-07T07:41:00.247Z,21.56
2017-01-07T07:41:40.844Z,21.61
2017-01-07T07:42:21.426Z,21.61
2017-01-07T07:43:02.015Z,21.61
2017-01-07T07:43:42.604Z,21.58
2017-01-07T07:44:23.192Z,21.61
2017-01-07T07:45:03.776Z,21.71
2017-01-07T07:45:44.365Z,21.74
2017-01-07T07:46:24.961Z,21.62
2017-01-07T07:47:05.545Z,21.62
2017-01-07T07:47:46.122Z,21.61
2017-01-07T07:48:26.699Z,21.59
2017-01-07T07:49:07.276Z,21.58
2017-01-07T07:49:47.870Z,21.61
2017-01-07T07:50:28.443Z,21.65
2017-01-07T07:51:09.029Z,21.61
2017-01-07T07:51:49.625Z,21.61
2017-01-07T07:52:30.202Z,21.61
2017-01-07T07:53:10.799Z,21.58
2017-01-07T07:53:51.389Z,21.58
2017-01-07T07:54:31.967Z,21.61
2017-01-07T07:55:12.550Z,21.62
2017-01-07T07:55:53.130Z,21.67
2017-01-07T07:56:33.708Z,21.65
2017-01-07T07:57:14.299Z,21.71
2017-01-07T07:57:54.895Z,21.62
2017-01-07T07:58:35.482Z,21.69
2017-01-07T07:59:16.062Z,21.56
2017-01-07T07:59:56.642Z,21.68
2017-01-07T08:00:37.221Z,21.71
2017-01-07T08:01:17.806Z,21.65
2017-01-07T08:01:58.392Z,21.59
2017-01-07T08:02:38.972Z,21.74
2017-01-07T08:03:19.564Z,21.62
2017-01-07T08:04:00.158Z,21.58
2017-01-07T08:04:40.739Z,21.59
2017-01-07T08:05:21.317Z,21.68
2017-01-07T08:06:01.917Z,21.65
2017-01-07T08:06:42.493Z,21.68
2017-01-07T08:07:23.085Z,21.64
2017-01-07T08:08:03.693Z,21.72
2017-01-07T08:08:44.287Z,21.61
2017-01-07T08:09:24.876Z,21.72
2017-01-07T08:10:05.472Z,21.64
2017-01-07T08:10:46.077Z,21.65
2017-01-07T08:11:26.673Z,21.71
2017-01-07T08:12:07.273Z,21.75
2017-01-07T08:12:47.898Z,21.61
2017-01-07T08:13:28.507Z,21.59
2017-01-07T08:14:09.093Z,21.64
2017-01-07T08:14:49.690Z,21.64
2017-01-07T08:15:30.270Z,21.65
2017-01-07T08:16:10.851Z,21.59
2017-01-07T08:16:51.451Z,21.71
2017-01-07T08:17:32.045Z,21.62
2017-01-07T08:18:12.619Z,21.71
2017-01-07T08:18:53.199Z,21.69
2017-01-07T08:19:33.788Z,21.72
2017-01-07T08:20:14.394Z,21.68
2017-01-07T08:20:55.001Z,21.62
2017-01-07T08:21:35.582Z,21.59
2017-01-07T08:22:16.163Z,21.68
2017-01-07T08:22:56.763Z,21.54
2017-01-07T08:23:37.347Z,21.53
2017-01-07T08:24:17.929Z,21.68
2017-01-07T08:24:58.516Z,21.67
2017-01-07T08:25:39.112Z,21.71
2017-01-07T08:26:19.703Z,21.64
2017-01-07T08:27:00.309Z,21.64
2017-01-07T08:27:40.930Z,21.71
2017-01-07T08:28:21.516Z,21.69
2017-01-07T08:29:02.108Z,21.65
2017-01-07T08:29:42.696Z,21.59
2017-01-07T08:30:23.295Z,21.71
2017-01-07T08:31:03.875Z,21.65
2017-01-07T08:31:44.469Z,21.65
2017-01-07T08:32:25.065Z,21.75
2017-01-07T08:33:05.636Z,21.65
2017-01-07T08:33:46.223Z,21.69
2017-01-07T08:34:26.820Z,21.71
2017-01-07T08:35:07.408Z,21.58
2017-01-07T08:35:47.991Z,21.62
2017-01-07T08:36:28.587Z,21.68
2017-01-07T08:37:09.182Z,21.54
2017-01-07T08:37:49.777Z,21.69
2017-01-07T08:38:30.362Z,21.71
2017-01-07T08:39:10.948Z,21.67
2017-01-07T08:39:51.527Z,21.68
2017-01-07T08:40:32.123Z,21.68
2017-01-07T08:41:12.698Z,21.69
2017-01-07T08:41:53.308Z,21.62
2017-01-07T08:42:33.907Z,21.69
2017-01-07T08:43:14.490Z,21.69
2017-01-07T08:43:55.072Z,21.59
2017-01-07T08:44:35.660Z,21.68
2017-01-07T08:45:16.242Z,21.67